sensor_id;sensor_type;location;lat;lon;timestamp;temperature;humidity
21616;DHT22;10970;48.714;9.584;2023-04-12T00:00:24;7.70;99.90
21616;DHT22;10970;48.714;9.584;2023-04-12T00:02:50;7.70;99.90
21616;DHT22;10970;48.714;9.584;2023-04-12T00:05:20;7.60;99.90
21616;DHT22;10970;48.714;9.584;2023-04-12T00:07:48;7.60;99.90
21616;DHT22;10970;48.714;9.584;2023-04-12T00:10:13;7.70;99.90
21616;DHT22;10970;48.714;9.584;2023-04-12T00:12:39;7.80;99.90
21616;DHT22;10970;48.714;9.584;2023-04-12T00:15:06;7.70;99.90
21616;DHT22;10970;48.714;9.584;2023-04-12T00:17:32;7.70;99.90
21616;DHT22;10970;48.714;9.584;2023-04-12T00:19:57;7.70;99.90
21616;DHT22;10970;48.714;9.584;2023-04-12T00:22:24;7.70;99.90
21616;DHT22;10970;48.714;9.584;2023-04-12T00:24:51;7.60;99.90
21616;DHT22;10970;48.714;9.584;2023-04-12T00:27:16;7.70;99.90
21616;DHT22;10970;48.714;9.584;2023-04-12T00:29:42;7.80;99.90
21616;DHT22;10970;48.714;9.584;2023-04-12T00:32:08;7.90;99.90
21616;DHT22;10970;48.714;9.584;2023-04-12T00:34:33;7.80;99.90
21616;DHT22;10970;48.714;9.584;2023-04-12T00:37:00;7.70;99.90
21616;DHT22;10970;48.714;9.584;2023-04-12T00:39:26;7.50;99.90
21616;DHT22;10970;48.714;9.584;2023-04-12T00:41:52;7.50;99.90
21616;DHT22;10970;48.714;9.584;2023-04-12T00:44:17;7.40;99.90
21616;DHT22;10970;48.714;9.584;2023-04-12T00:46:46;7.50;99.90
21616;DHT22;10970;48.714;9.584;2023-04-12T00:49:12;7.50;99.90
21616;DHT22;10970;48.714;9.584;2023-04-12T00:51:38;7.60;99.90
21616;DHT22;10970;48.714;9.584;2023-04-12T00:54:05;7.70;99.90
21616;DHT22;10970;48.714;9.584;2023-04-12T00:56:31;7.80;99.90
21616;DHT22;10970;48.714;9.584;2023-04-12T00:58:58;7.80;99.90
21616;DHT22;10970;48.714;9.584;2023-04-12T01:01:24;7.90;99.90
21616;DHT22;10970;48.714;9.584;2023-04-12T01:03:51;7.90;99.90
21616;DHT22;10970;48.714;9.584;2023-04-12T01:06:23;7.90;99.90
21616;DHT22;10970;48.714;9.584;2023-04-12T01:12:19;7.90;99.90
21616;DHT22;10970;48.714;9.584;2023-04-12T01:17:22;8.00;99.90
21616;DHT22;10970;48.714;9.584;2023-04-12T01:20:22;8.10;99.90
21616;DHT22;10970;48.714;9.584;2023-04-12T01:28:34;8.00;99.90
21616;DHT22;10970;48.714;9.584;2023-04-12T01:31:02;8.00;99.90
21616;DHT22;10970;48.714;9.584;2023-04-12T01:33:29;8.00;99.90
21616;DHT22;10970;48.714;9.584;2023-04-12T01:35:59;8.00;99.90
21616;DHT22;10970;48.714;9.584;2023-04-12T01:38:27;8.00;99.90
21616;DHT22;10970;48.714;9.584;2023-04-12T01:40:54;8.00;99.90
21616;DHT22;10970;48.714;9.584;2023-04-12T01:43:20;8.00;99.90
21616;DHT22;10970;48.714;9.584;2023-04-12T01:45:45;8.00;99.90
21616;DHT22;10970;48.714;9.584;2023-04-12T01:48:11;8.00;99.90
21616;DHT22;10970;48.714;9.584;2023-04-12T01:51:04;7.90;99.90
21616;DHT22;10970;48.714;9.584;2023-04-12T01:56:43;7.80;99.90
21616;DHT22;10970;48.714;9.584;2023-04-12T01:59:13;7.80;99.90
21616;DHT22;10970;48.714;9.584;2023-04-12T02:01:40;7.80;99.90
21616;DHT22;10970;48.714;9.584;2023-04-12T02:04:08;7.70;99.90
21616;DHT22;10970;48.714;9.584;2023-04-12T02:06:35;7.80;99.90
21616;DHT22;10970;48.714;9.584;2023-04-12T02:09:03;7.80;99.90
21616;DHT22;10970;48.714;9.584;2023-04-12T02:11:30;7.70;99.90
21616;DHT22;10970;48.714;9.584;2023-04-12T02:13:56;7.70;99.90
21616;DHT22;10970;48.714;9.584;2023-04-12T02:16:21;7.70;99.90
21616;DHT22;10970;48.714;9.584;2023-04-12T02:18:51;7.60;99.90
21616;DHT22;10970;48.714;9.584;2023-04-12T02:21:17;7.60;99.90
21616;DHT22;10970;48.714;9.584;2023-04-12T02:23:43;7.60;99.90
21616;DHT22;10970;48.714;9.584;2023-04-12T02:26:11;7.60;99.90
21616;DHT22;10970;48.714;9.584;2023-04-12T02:28:40;7.50;99.90
21616;DHT22;10970;48.714;9.584;2023-04-12T02:31:06;7.50;99.90
21616;DHT22;10970;48.714;9.584;2023-04-12T02:33:32;7.50;99.90
21616;DHT22;10970;48.714;9.584;2023-04-12T02:35:59;7.40;99.90
21616;DHT22;10970;48.714;9.584;2023-04-12T02:38:27;7.40;99.90
21616;DHT22;10970;48.714;9.584;2023-04-12T02:40:53;7.40;99.90
21616;DHT22;10970;48.714;9.584;2023-04-12T02:43:20;7.40;99.90
21616;DHT22;10970;48.714;9.584;2023-04-12T02:45:46;7.40;99.90
21616;DHT22;10970;48.714;9.584;2023-04-12T02:48:12;7.40;99.90
21616;DHT22;10970;48.714;9.584;2023-04-12T02:50:38;7.40;99.90
21616;DHT22;10970;48.714;9.584;2023-04-12T02:53:03;7.40;99.90
21616;DHT22;10970;48.714;9.584;2023-04-12T02:55:29;7.40;99.90
21616;DHT22;10970;48.714;9.584;2023-04-12T02:57:55;7.40;99.90
21616;DHT22;10970;48.714;9.584;2023-04-12T03:00:22;7.40;99.90
21616;DHT22;10970;48.714;9.584;2023-04-12T03:02:49;7.40;99.90
21616;DHT22;10970;48.714;9.584;2023-04-12T03:05:17;7.40;99.90
21616;DHT22;10970;48.714;9.584;2023-04-12T03:07:43;7.40;99.90
21616;DHT22;10970;48.714;9.584;2023-04-12T03:10:09;7.40;99.90
21616;DHT22;10970;48.714;9.584;2023-04-12T03:12:38;7.40;99.90
21616;DHT22;10970;48.714;9.584;2023-04-12T03:15:04;7.40;99.90
21616;DHT22;10970;48.714;9.584;2023-04-12T03:17:30;7.30;99.90
21616;DHT22;10970;48.714;9.584;2023-04-12T03:20:01;7.30;99.90
21616;DHT22;10970;48.714;9.584;2023-04-12T03:22:27;7.30;99.90
21616;DHT22;10970;48.714;9.584;2023-04-12T03:24:52;7.30;99.90
21616;DHT22;10970;48.714;9.584;2023-04-12T03:27:18;7.30;99.90
21616;DHT22;10970;48.714;9.584;2023-04-12T03:29:44;7.20;99.90
21616;DHT22;10970;48.714;9.584;2023-04-12T03:32:09;7.20;99.90
21616;DHT22;10970;48.714;9.584;2023-04-12T03:34:35;7.20;99.90
21616;DHT22;10970;48.714;9.584;2023-04-12T03:37:01;7.20;99.90
21616;DHT22;10970;48.714;9.584;2023-04-12T03:39:27;7.20;99.90
21616;DHT22;10970;48.714;9.584;2023-04-12T03:41:53;7.10;99.90
21616;DHT22;10970;48.714;9.584;2023-04-12T03:44:19;7.20;99.90
21616;DHT22;10970;48.714;9.584;2023-04-12T03:46:46;7.20;99.90
21616;DHT22;10970;48.714;9.584;2023-04-12T03:49:13;7.20;99.90
21616;DHT22;10970;48.714;9.584;2023-04-12T03:51:39;7.20;99.90
21616;DHT22;10970;48.714;9.584;2023-04-12T03:54:10;7.20;99.90
21616;DHT22;10970;48.714;9.584;2023-04-12T03:56:37;7.20;99.90
21616;DHT22;10970;48.714;9.584;2023-04-12T03:59:04;7.30;99.90
21616;DHT22;10970;48.714;9.584;2023-04-12T04:01:32;7.20;99.90
21616;DHT22;10970;48.714;9.584;2023-04-12T04:03:58;7.20;99.90
21616;DHT22;10970;48.714;9.584;2023-04-12T04:06:24;7.20;99.90
21616;DHT22;10970;48.714;9.584;2023-04-12T04:08:50;7.20;99.90
21616;DHT22;10970;48.714;9.584;2023-04-12T04:11:15;7.20;99.90
21616;DHT22;10970;48.714;9.584;2023-04-12T04:13:41;7.20;99.90
21616;DHT22;10970;48.714;9.584;2023-04-12T04:16:07;7.20;99.90
21616;DHT22;10970;48.714;9.584;2023-04-12T04:18:36;7.20;99.90
21616;DHT22;10970;48.714;9.584;2023-04-12T04:21:01;7.20;99.90
21616;DHT22;10970;48.714;9.584;2023-04-12T04:23:27;7.10;99.90
21616;DHT22;10970;48.714;9.584;2023-04-12T04:26:07;7.10;99.90
21616;DHT22;10970;48.714;9.584;2023-04-12T04:28:37;7.10;99.90
21616;DHT22;10970;48.714;9.584;2023-04-12T04:31:06;7.10;99.90
21616;DHT22;10970;48.714;9.584;2023-04-12T04:33:32;7.20;99.90
21616;DHT22;10970;48.714;9.584;2023-04-12T04:35:58;7.20;99.90
21616;DHT22;10970;48.714;9.584;2023-04-12T04:38:24;7.20;99.90
21616;DHT22;10970;48.714;9.584;2023-04-12T04:40:52;7.20;99.90
21616;DHT22;10970;48.714;9.584;2023-04-12T04:43:18;7.20;99.90
21616;DHT22;10970;48.714;9.584;2023-04-12T04:45:46;7.20;99.90
21616;DHT22;10970;48.714;9.584;2023-04-12T04:48:14;7.20;99.90
21616;DHT22;10970;48.714;9.584;2023-04-12T04:50:41;7.20;99.90
21616;DHT22;10970;48.714;9.584;2023-04-12T04:53:06;7.30;99.90
21616;DHT22;10970;48.714;9.584;2023-04-12T04:55:32;7.30;99.90
21616;DHT22;10970;48.714;9.584;2023-04-12T04:57:58;7.30;99.90
21616;DHT22;10970;48.714;9.584;2023-04-12T05:00:23;7.30;99.90
21616;DHT22;10970;48.714;9.584;2023-04-12T05:02:50;7.30;99.90
21616;DHT22;10970;48.714;9.584;2023-04-12T05:05:16;7.30;99.90
21616;DHT22;10970;48.714;9.584;2023-04-12T05:07:42;7.30;99.90
21616;DHT22;10970;48.714;9.584;2023-04-12T05:10:09;7.40;99.90
21616;DHT22;10970;48.714;9.584;2023-04-12T05:12:36;7.30;99.90
21616;DHT22;10970;48.714;9.584;2023-04-12T05:15:02;7.30;99.90
21616;DHT22;10970;48.714;9.584;2023-04-12T05:17:28;7.30;99.90
21616;DHT22;10970;48.714;9.584;2023-04-12T05:19:54;7.30;99.90
21616;DHT22;10970;48.714;9.584;2023-04-12T05:22:20;7.40;99.90
21616;DHT22;10970;48.714;9.584;2023-04-12T05:24:49;7.40;99.90
21616;DHT22;10970;48.714;9.584;2023-04-12T05:27:15;7.40;99.90
21616;DHT22;10970;48.714;9.584;2023-04-12T05:29:42;7.40;99.90
21616;DHT22;10970;48.714;9.584;2023-04-12T05:32:07;7.50;99.90
21616;DHT22;10970;48.714;9.584;2023-04-12T05:34:33;7.40;99.90
21616;DHT22;10970;48.714;9.584;2023-04-12T05:36:58;7.40;99.90
21616;DHT22;10970;48.714;9.584;2023-04-12T05:39:25;7.40;99.90
21616;DHT22;10970;48.714;9.584;2023-04-12T05:41:51;7.40;99.90
21616;DHT22;10970;48.714;9.584;2023-04-12T05:44:17;7.50;99.90
21616;DHT22;10970;48.714;9.584;2023-04-12T05:46:43;7.40;99.90
21616;DHT22;10970;48.714;9.584;2023-04-12T05:49:09;7.50;99.90
21616;DHT22;10970;48.714;9.584;2023-04-12T05:51:35;7.50;99.90
21616;DHT22;10970;48.714;9.584;2023-04-12T05:54:01;7.50;99.90
21616;DHT22;10970;48.714;9.584;2023-04-12T05:56:30;7.60;99.90
21616;DHT22;10970;48.714;9.584;2023-04-12T05:58:56;7.50;99.90
21616;DHT22;10970;48.714;9.584;2023-04-12T06:01:22;7.60;99.90
21616;DHT22;10970;48.714;9.584;2023-04-12T06:03:55;7.60;99.90
21616;DHT22;10970;48.714;9.584;2023-04-12T06:06:21;7.60;99.90
21616;DHT22;10970;48.714;9.584;2023-04-12T06:08:46;7.60;99.90
21616;DHT22;10970;48.714;9.584;2023-04-12T06:11:12;7.70;99.90
21616;DHT22;10970;48.714;9.584;2023-04-12T06:13:38;7.70;99.90
21616;DHT22;10970;48.714;9.584;2023-04-12T06:16:04;7.70;99.90
21616;DHT22;10970;48.714;9.584;2023-04-12T06:18:30;7.70;99.90
21616;DHT22;10970;48.714;9.584;2023-04-12T06:20:56;7.80;99.90
21616;DHT22;10970;48.714;9.584;2023-04-12T06:23:22;7.80;99.90
21616;DHT22;10970;48.714;9.584;2023-04-12T06:25:48;7.80;99.90
21616;DHT22;10970;48.714;9.584;2023-04-12T06:28:14;7.80;99.90
21616;DHT22;10970;48.714;9.584;2023-04-12T06:30:41;7.80;99.90
21616;DHT22;10970;48.714;9.584;2023-04-12T06:33:06;7.90;99.90
21616;DHT22;10970;48.714;9.584;2023-04-12T06:35:32;7.90;99.90
21616;DHT22;10970;48.714;9.584;2023-04-12T06:37:58;8.00;99.90
21616;DHT22;10970;48.714;9.584;2023-04-12T06:40:24;8.00;99.90
21616;DHT22;10970;48.714;9.584;2023-04-12T06:42:50;8.00;99.90
21616;DHT22;10970;48.714;9.584;2023-04-12T06:45:15;8.00;99.90
21616;DHT22;10970;48.714;9.584;2023-04-12T06:47:41;8.10;99.90
21616;DHT22;10970;48.714;9.584;2023-04-12T06:50:07;8.10;99.90
21616;DHT22;10970;48.714;9.584;2023-04-12T06:52:33;8.10;99.90
21616;DHT22;10970;48.714;9.584;2023-04-12T06:54:58;8.10;99.90
21616;DHT22;10970;48.714;9.584;2023-04-12T06:57:24;8.20;99.90
21616;DHT22;10970;48.714;9.584;2023-04-12T06:59:50;8.20;99.90
21616;DHT22;10970;48.714;9.584;2023-04-12T07:02:16;8.30;99.90
21616;DHT22;10970;48.714;9.584;2023-04-12T07:04:42;8.40;99.90
21616;DHT22;10970;48.714;9.584;2023-04-12T07:07:08;8.30;99.90
21616;DHT22;10970;48.714;9.584;2023-04-12T07:09:34;8.30;99.90
21616;DHT22;10970;48.714;9.584;2023-04-12T07:12:00;8.40;99.90
21616;DHT22;10970;48.714;9.584;2023-04-12T07:14:27;8.50;99.90
21616;DHT22;10970;48.714;9.584;2023-04-12T07:16:52;8.50;99.90
21616;DHT22;10970;48.714;9.584;2023-04-12T07:19:18;8.50;99.90
21616;DHT22;10970;48.714;9.584;2023-04-12T07:21:44;8.50;99.90
21616;DHT22;10970;48.714;9.584;2023-04-12T07:24:09;8.60;99.90
21616;DHT22;10970;48.714;9.584;2023-04-12T07:26:36;8.60;99.90
21616;DHT22;10970;48.714;9.584;2023-04-12T07:29:01;8.70;99.90
21616;DHT22;10970;48.714;9.584;2023-04-12T07:31:27;8.70;99.90
21616;DHT22;10970;48.714;9.584;2023-04-12T07:33:56;8.80;99.90
21616;DHT22;10970;48.714;9.584;2023-04-12T07:36:22;8.90;99.90
21616;DHT22;10970;48.714;9.584;2023-04-12T07:38:47;9.00;99.90
21616;DHT22;10970;48.714;9.584;2023-04-12T07:41:13;9.10;99.90
21616;DHT22;10970;48.714;9.584;2023-04-12T07:43:39;9.10;99.90
21616;DHT22;10970;48.714;9.584;2023-04-12T07:46:04;9.10;99.90
21616;DHT22;10970;48.714;9.584;2023-04-12T07:48:33;9.00;99.90
21616;DHT22;10970;48.714;9.584;2023-04-12T07:50:59;9.10;99.90
21616;DHT22;10970;48.714;9.584;2023-04-12T07:53:26;9.20;99.90
21616;DHT22;10970;48.714;9.584;2023-04-12T07:55:52;9.20;99.90
21616;DHT22;10970;48.714;9.584;2023-04-12T07:58:19;9.30;99.90
21616;DHT22;10970;48.714;9.584;2023-04-12T08:00:46;9.10;99.90
21616;DHT22;10970;48.714;9.584;2023-04-12T08:03:13;9.10;99.90
21616;DHT22;10970;48.714;9.584;2023-04-12T08:05:39;9.10;99.90
21616;DHT22;10970;48.714;9.584;2023-04-12T08:08:05;9.30;99.90
21616;DHT22;10970;48.714;9.584;2023-04-12T08:10:31;9.30;99.90
21616;DHT22;10970;48.714;9.584;2023-04-12T08:12:57;9.20;99.90
21616;DHT22;10970;48.714;9.584;2023-04-12T08:15:23;9.30;99.90
21616;DHT22;10970;48.714;9.584;2023-04-12T08:17:49;9.30;99.90
21616;DHT22;10970;48.714;9.584;2023-04-12T08:20:14;9.30;99.90
21616;DHT22;10970;48.714;9.584;2023-04-12T08:22:44;9.30;99.90
21616;DHT22;10970;48.714;9.584;2023-04-12T08:25:10;9.40;99.90
21616;DHT22;10970;48.714;9.584;2023-04-12T08:27:38;9.40;99.90
21616;DHT22;10970;48.714;9.584;2023-04-12T08:30:05;9.30;99.90
21616;DHT22;10970;48.714;9.584;2023-04-12T08:32:33;9.40;99.90
21616;DHT22;10970;48.714;9.584;2023-04-12T08:34:58;9.50;99.90
21616;DHT22;10970;48.714;9.584;2023-04-12T08:37:24;9.60;99.90
21616;DHT22;10970;48.714;9.584;2023-04-12T08:39:50;9.70;99.90
21616;DHT22;10970;48.714;9.584;2023-04-12T08:42:16;9.70;99.90
21616;DHT22;10970;48.714;9.584;2023-04-12T08:44:42;9.80;99.90
21616;DHT22;10970;48.714;9.584;2023-04-12T08:47:09;9.80;99.90
21616;DHT22;10970;48.714;9.584;2023-04-12T08:49:35;10.00;99.90
21616;DHT22;10970;48.714;9.584;2023-04-12T08:52:06;10.10;99.90
21616;DHT22;10970;48.714;9.584;2023-04-12T08:54:35;10.00;99.90
21616;DHT22;10970;48.714;9.584;2023-04-12T08:57:07;10.10;99.90
21616;DHT22;10970;48.714;9.584;2023-04-12T08:59:37;10.10;99.90
21616;DHT22;10970;48.714;9.584;2023-04-12T09:02:03;10.30;99.90
21616;DHT22;10970;48.714;9.584;2023-04-12T09:04:29;10.30;99.90
21616;DHT22;10970;48.714;9.584;2023-04-12T09:06:55;10.40;99.90
21616;DHT22;10970;48.714;9.584;2023-04-12T09:09:43;10.50;99.90
21616;DHT22;10970;48.714;9.584;2023-04-12T09:12:10;10.50;99.90
21616;DHT22;10970;48.714;9.584;2023-04-12T09:14:37;10.60;99.90
21616;DHT22;10970;48.714;9.584;2023-04-12T09:17:03;10.50;99.90
21616;DHT22;10970;48.714;9.584;2023-04-12T09:19:31;10.60;99.90
21616;DHT22;10970;48.714;9.584;2023-04-12T09:21:57;10.70;99.90
21616;DHT22;10970;48.714;9.584;2023-04-12T09:24:23;10.60;99.90
21616;DHT22;10970;48.714;9.584;2023-04-12T09:27:05;10.60;99.90
21616;DHT22;10970;48.714;9.584;2023-04-12T09:29:32;10.60;99.90
21616;DHT22;10970;48.714;9.584;2023-04-12T09:32:06;10.60;99.90
21616;DHT22;10970;48.714;9.584;2023-04-12T09:34:34;10.60;99.90
21616;DHT22;10970;48.714;9.584;2023-04-12T09:37:14;10.50;99.90
21616;DHT22;10970;48.714;9.584;2023-04-12T09:39:41;10.60;99.90
21616;DHT22;10970;48.714;9.584;2023-04-12T09:42:08;10.60;99.90
21616;DHT22;10970;48.714;9.584;2023-04-12T09:44:34;10.70;99.90
21616;DHT22;10970;48.714;9.584;2023-04-12T09:47:01;10.70;99.90
21616;DHT22;10970;48.714;9.584;2023-04-12T09:52:04;10.90;99.90
21616;DHT22;10970;48.714;9.584;2023-04-12T09:54:32;11.00;99.90
21616;DHT22;10970;48.714;9.584;2023-04-12T09:57:02;11.00;99.90
21616;DHT22;10970;48.714;9.584;2023-04-12T09:59:30;11.10;99.90
21616;DHT22;10970;48.714;9.584;2023-04-12T10:01:58;11.10;99.90
21616;DHT22;10970;48.714;9.584;2023-04-12T10:04:24;11.20;99.90
21616;DHT22;10970;48.714;9.584;2023-04-12T10:06:51;11.10;99.90
21616;DHT22;10970;48.714;9.584;2023-04-12T10:09:17;11.20;99.90
21616;DHT22;10970;48.714;9.584;2023-04-12T10:11:44;11.30;99.90
21616;DHT22;10970;48.714;9.584;2023-04-12T10:14:09;11.40;99.90
21616;DHT22;10970;48.714;9.584;2023-04-12T10:16:39;11.50;99.90
21616;DHT22;10970;48.714;9.584;2023-04-12T10:19:06;11.60;99.90
21616;DHT22;10970;48.714;9.584;2023-04-12T10:21:32;11.80;99.90
21616;DHT22;10970;48.714;9.584;2023-04-12T10:23:57;12.10;99.90
21616;DHT22;10970;48.714;9.584;2023-04-12T10:26:23;12.20;99.90
21616;DHT22;10970;48.714;9.584;2023-04-12T10:29:21;12.30;99.90
21616;DHT22;10970;48.714;9.584;2023-04-12T10:31:46;12.50;99.90
21616;DHT22;10970;48.714;9.584;2023-04-12T10:34:12;12.70;99.90
21616;DHT22;10970;48.714;9.584;2023-04-12T10:36:58;12.90;99.90
21616;DHT22;10970;48.714;9.584;2023-04-12T10:39:46;13.10;99.90
21616;DHT22;10970;48.714;9.584;2023-04-12T10:42:27;13.50;99.90
21616;DHT22;10970;48.714;9.584;2023-04-12T10:45:39;13.50;99.90
21616;DHT22;10970;48.714;9.584;2023-04-12T10:50:27;13.90;99.90
21616;DHT22;10970;48.714;9.584;2023-04-12T10:55:38;14.30;99.90
21616;DHT22;10970;48.714;9.584;2023-04-12T10:58:04;14.30;99.90
21616;DHT22;10970;48.714;9.584;2023-04-12T11:03:26;14.30;99.90
21616;DHT22;10970;48.714;9.584;2023-04-12T11:06:10;14.10;99.90
21616;DHT22;10970;48.714;9.584;2023-04-12T11:08:38;14.10;99.90
21616;DHT22;10970;48.714;9.584;2023-04-12T11:11:18;14.20;99.90
21616;DHT22;10970;48.714;9.584;2023-04-12T11:13:45;14.30;99.90
21616;DHT22;10970;48.714;9.584;2023-04-12T11:16:11;14.20;99.90
21616;DHT22;10970;48.714;9.584;2023-04-12T11:18:39;14.10;99.90
21616;DHT22;10970;48.714;9.584;2023-04-12T11:21:05;14.20;99.90
21616;DHT22;10970;48.714;9.584;2023-04-12T11:23:32;14.50;99.90
21616;DHT22;10970;48.714;9.584;2023-04-12T11:25:58;14.60;99.90
21616;DHT22;10970;48.714;9.584;2023-04-12T11:28:24;14.70;99.90
21616;DHT22;10970;48.714;9.584;2023-04-12T11:30:55;14.90;99.90
21616;DHT22;10970;48.714;9.584;2023-04-12T11:36:09;15.30;99.90
21616;DHT22;10970;48.714;9.584;2023-04-12T11:38:36;15.20;99.90
21616;DHT22;10970;48.714;9.584;2023-04-12T11:41:04;15.20;99.90
21616;DHT22;10970;48.714;9.584;2023-04-12T11:43:32;15.10;99.90
21616;DHT22;10970;48.714;9.584;2023-04-12T11:45:59;15.10;99.90
21616;DHT22;10970;48.714;9.584;2023-04-12T11:48:26;14.90;99.90
21616;DHT22;10970;48.714;9.584;2023-04-12T11:50:52;14.50;99.90
21616;DHT22;10970;48.714;9.584;2023-04-12T11:53:18;14.40;99.90
21616;DHT22;10970;48.714;9.584;2023-04-12T11:55:48;14.50;99.90
21616;DHT22;10970;48.714;9.584;2023-04-12T11:58:21;14.50;99.90
21616;DHT22;10970;48.714;9.584;2023-04-12T12:00:46;14.30;99.90
21616;DHT22;10970;48.714;9.584;2023-04-12T12:03:12;14.20;99.90
21616;DHT22;10970;48.714;9.584;2023-04-12T12:05:39;14.30;99.90
21616;DHT22;10970;48.714;9.584;2023-04-12T12:08:07;14.30;99.90
21616;DHT22;10970;48.714;9.584;2023-04-12T12:10:37;14.20;99.90
21616;DHT22;10970;48.714;9.584;2023-04-12T12:13:13;14.30;99.90
21616;DHT22;10970;48.714;9.584;2023-04-12T12:15:42;14.50;99.90
21616;DHT22;10970;48.714;9.584;2023-04-12T12:18:09;14.80;99.90
21616;DHT22;10970;48.714;9.584;2023-04-12T12:20:39;14.80;99.90
21616;DHT22;10970;48.714;9.584;2023-04-12T12:23:06;14.80;99.90
21616;DHT22;10970;48.714;9.584;2023-04-12T12:25:32;14.80;99.90
21616;DHT22;10970;48.714;9.584;2023-04-12T12:27:58;14.60;99.90
21616;DHT22;10970;48.714;9.584;2023-04-12T12:30:23;14.60;99.90
21616;DHT22;10970;48.714;9.584;2023-04-12T12:32:50;14.40;99.90
21616;DHT22;10970;48.714;9.584;2023-04-12T12:35:18;14.40;99.90
21616;DHT22;10970;48.714;9.584;2023-04-12T12:37:49;14.40;99.90
21616;DHT22;10970;48.714;9.584;2023-04-12T12:40:15;14.50;99.90
21616;DHT22;10970;48.714;9.584;2023-04-12T12:42:50;14.40;99.90
21616;DHT22;10970;48.714;9.584;2023-04-12T12:45:18;14.50;99.90
21616;DHT22;10970;48.714;9.584;2023-04-12T12:47:58;14.70;99.90
21616;DHT22;10970;48.714;9.584;2023-04-12T12:50:25;15.10;99.90
21616;DHT22;10970;48.714;9.584;2023-04-12T12:52:52;15.40;99.90
21616;DHT22;10970;48.714;9.584;2023-04-12T12:55:19;15.50;99.90
21616;DHT22;10970;48.714;9.584;2023-04-12T12:57:46;15.60;99.90
21616;DHT22;10970;48.714;9.584;2023-04-12T13:00:13;15.50;99.90
21616;DHT22;10970;48.714;9.584;2023-04-12T13:02:42;15.50;99.90
21616;DHT22;10970;48.714;9.584;2023-04-12T13:05:09;15.50;99.90
21616;DHT22;10970;48.714;9.584;2023-04-12T13:07:35;15.80;99.90
21616;DHT22;10970;48.714;9.584;2023-04-12T13:10:01;15.80;99.90
21616;DHT22;10970;48.714;9.584;2023-04-12T13:12:27;15.60;99.90
21616;DHT22;10970;48.714;9.584;2023-04-12T13:14:53;15.40;99.90
21616;DHT22;10970;48.714;9.584;2023-04-12T13:17:19;15.30;99.90
21616;DHT22;10970;48.714;9.584;2023-04-12T13:19:45;15.20;99.90
21616;DHT22;10970;48.714;9.584;2023-04-12T13:22:12;15.20;99.90
21616;DHT22;10970;48.714;9.584;2023-04-12T13:24:38;15.10;99.90
21616;DHT22;10970;48.714;9.584;2023-04-12T13:27:03;15.10;99.90
21616;DHT22;10970;48.714;9.584;2023-04-12T13:29:29;15.20;99.90
21616;DHT22;10970;48.714;9.584;2023-04-12T13:31:55;15.40;99.90
21616;DHT22;10970;48.714;9.584;2023-04-12T13:34:21;15.50;99.90
21616;DHT22;10970;48.714;9.584;2023-04-12T13:36:47;15.40;99.90
21616;DHT22;10970;48.714;9.584;2023-04-12T13:39:13;15.20;99.90
21616;DHT22;10970;48.714;9.584;2023-04-12T13:41:39;15.20;99.90
21616;DHT22;10970;48.714;9.584;2023-04-12T13:44:05;15.20;99.90
21616;DHT22;10970;48.714;9.584;2023-04-12T13:46:31;15.00;99.90
21616;DHT22;10970;48.714;9.584;2023-04-12T13:48:56;14.80;99.90
21616;DHT22;10970;48.714;9.584;2023-04-12T13:51:22;14.70;99.90
21616;DHT22;10970;48.714;9.584;2023-04-12T13:53:48;14.60;99.90
21616;DHT22;10970;48.714;9.584;2023-04-12T13:56:14;14.60;99.90
21616;DHT22;10970;48.714;9.584;2023-04-12T13:58:41;14.60;99.90
21616;DHT22;10970;48.714;9.584;2023-04-12T14:01:07;14.50;99.90
21616;DHT22;10970;48.714;9.584;2023-04-12T14:03:34;14.60;99.90
21616;DHT22;10970;48.714;9.584;2023-04-12T14:06:00;14.60;99.90
21616;DHT22;10970;48.714;9.584;2023-04-12T14:08:27;14.70;99.90
21616;DHT22;10970;48.714;9.584;2023-04-12T14:10:53;14.90;99.90
21616;DHT22;10970;48.714;9.584;2023-04-12T14:13:20;15.00;99.90
21616;DHT22;10970;48.714;9.584;2023-04-12T14:15:46;15.10;99.90
21616;DHT22;10970;48.714;9.584;2023-04-12T14:18:12;15.10;99.90
21616;DHT22;10970;48.714;9.584;2023-04-12T14:20:37;15.20;99.90
21616;DHT22;10970;48.714;9.584;2023-04-12T14:23:03;15.20;99.90
21616;DHT22;10970;48.714;9.584;2023-04-12T14:25:29;15.10;99.90
21616;DHT22;10970;48.714;9.584;2023-04-12T14:27:55;15.00;99.90
21616;DHT22;10970;48.714;9.584;2023-04-12T14:30:22;15.00;99.90
21616;DHT22;10970;48.714;9.584;2023-04-12T14:32:47;14.90;99.90
21616;DHT22;10970;48.714;9.584;2023-04-12T14:35:14;14.90;99.90
21616;DHT22;10970;48.714;9.584;2023-04-12T14:37:39;14.80;99.90
21616;DHT22;10970;48.714;9.584;2023-04-12T14:40:06;14.90;99.90
21616;DHT22;10970;48.714;9.584;2023-04-12T14:42:32;15.00;99.90
21616;DHT22;10970;48.714;9.584;2023-04-12T14:44:59;15.00;99.90
21616;DHT22;10970;48.714;9.584;2023-04-12T14:47:25;14.90;99.90
21616;DHT22;10970;48.714;9.584;2023-04-12T14:49:51;14.90;99.90
21616;DHT22;10970;48.714;9.584;2023-04-12T14:52:16;14.90;99.90
21616;DHT22;10970;48.714;9.584;2023-04-12T14:54:43;15.00;99.90
21616;DHT22;10970;48.714;9.584;2023-04-12T14:57:08;15.10;99.90
21616;DHT22;10970;48.714;9.584;2023-04-12T14:59:35;15.20;99.90
21616;DHT22;10970;48.714;9.584;2023-04-12T15:02:01;15.20;99.90
21616;DHT22;10970;48.714;9.584;2023-04-12T15:04:27;15.20;99.90
21616;DHT22;10970;48.714;9.584;2023-04-12T15:06:52;15.10;99.90
21616;DHT22;10970;48.714;9.584;2023-04-12T15:09:18;15.00;99.90
21616;DHT22;10970;48.714;9.584;2023-04-12T15:11:48;14.90;99.90
21616;DHT22;10970;48.714;9.584;2023-04-12T15:14:15;14.90;99.90
21616;DHT22;10970;48.714;9.584;2023-04-12T15:16:43;14.80;99.90
21616;DHT22;10970;48.714;9.584;2023-04-12T15:19:11;14.80;99.90
21616;DHT22;10970;48.714;9.584;2023-04-12T15:21:37;14.90;99.90
21616;DHT22;10970;48.714;9.584;2023-04-12T15:24:03;14.90;99.90
21616;DHT22;10970;48.714;9.584;2023-04-12T15:26:29;15.00;99.90
21616;DHT22;10970;48.714;9.584;2023-04-12T15:28:54;15.10;99.90
21616;DHT22;10970;48.714;9.584;2023-04-12T15:31:20;15.20;99.90
21616;DHT22;10970;48.714;9.584;2023-04-12T15:33:47;15.30;99.90
21616;DHT22;10970;48.714;9.584;2023-04-12T15:36:15;15.40;99.90
21616;DHT22;10970;48.714;9.584;2023-04-12T15:38:41;15.40;99.90
21616;DHT22;10970;48.714;9.584;2023-04-12T15:41:07;15.40;99.90
21616;DHT22;10970;48.714;9.584;2023-04-12T15:43:33;15.40;99.90
21616;DHT22;10970;48.714;9.584;2023-04-12T15:45:59;15.20;99.90
21616;DHT22;10970;48.714;9.584;2023-04-12T15:48:25;15.20;99.90
21616;DHT22;10970;48.714;9.584;2023-04-12T15:50:53;15.00;99.90
21616;DHT22;10970;48.714;9.584;2023-04-12T15:53:24;15.00;99.90
21616;DHT22;10970;48.714;9.584;2023-04-12T15:55:51;14.70;99.90
21616;DHT22;10970;48.714;9.584;2023-04-12T15:58:24;13.80;99.90
21616;DHT22;10970;48.714;9.584;2023-04-12T16:00:51;12.50;99.90
21616;DHT22;10970;48.714;9.584;2023-04-12T16:03:20;11.40;99.90
21616;DHT22;10970;48.714;9.584;2023-04-12T16:05:50;10.80;99.90
21616;DHT22;10970;48.714;9.584;2023-04-12T16:08:19;10.60;99.90